Time;durP1;ratioP1;P1;durP2;ratioP2;P2;SDS_P1;SDS_P2;PMS_P1;PMS_P2;Temp;Humidity;BMP_temperature;BMP_pressure;BME280_temperature;BME280_humidity;BME280_pressure;Samples;Min_cycle;Max_cycle;Signal;HPM_P1;HPM_P2
2021/01/12 00:00:20;;;;;;;9.10;7.13;;;;;;;;;;4392641;32;21175;-54
2021/01/12 00:02:46;;;;;;;10.57;8.20;;;;;;;;;;4402975;32;20692;-54
2021/01/12 00:05:12;;;;;;;11.57;7.87;;;;;;;;;;4384376;32;20313;-54
2021/01/12 00:07:37;;;;;;;7.20;6.50;;;;;;;;;;4385305;32;20279;-54
2021/01/12 00:10:04;;;;;;;14.23;8.47;;;;;;;;;;4398071;32;20288;-54
2021/01/12 00:12:30;;;;;;;22.07;10.70;;;;;;;;;;4397954;32;20285;-53
2021/01/12 00:14:55;;;;;;;16.07;9.33;;;;;;;;;;4380428;32;20739;-54
2021/01/12 00:17:21;;;;;;;16.50;9.63;;;;;;;;;;4392589;32;20237;-54
2021/01/12 00:19:46;;;;;;;18.63;11.40;;;;;;;;;;4396193;32;20340;-52
2021/01/12 00:22:15;;;;;;;14.40;9.87;;;;;;;;;;4400452;32;20217;-53
2021/01/12 00:24:44;;;;;;;15.50;8.77;;;;;;;;;;4391098;32;20654;-54
2021/01/12 00:27:15;;;;;;;8.73;6.47;;;;;;;;;;4401057;32;20286;-52
2021/01/12 00:29:41;;;;;;;22.97;12.97;;;;;;;;;;4402094;32;20214;-54
2021/01/12 00:32:07;;;;;;;16.90;10.43;;;;;;;;;;4382316;32;20264;-54
2021/01/12 00:34:33;;;;;;;11.23;8.03;;;;;;;;;;4401163;32;20356;-54
2021/01/12 00:36:59;;;;;;;7.43;5.53;;;;;;;;;;4396682;32;20429;-53
2021/01/12 00:39:25;;;;;;;9.20;5.83;;;;;;;;;;4403092;32;20272;-54
2021/01/12 00:41:55;;;;;;;9.70;6.67;;;;;;;;;;4379275;32;20288;-53
2021/01/12 00:44:24;;;;;;;7.53;6.23;;;;;;;;;;4401708;32;20232;-53
2021/01/12 00:46:50;;;;;;;8.20;6.33;;;;;;;;;;4386877;32;20757;-52
2021/01/12 00:49:18;;;;;;;10.00;6.93;;;;;;;;;;4397837;32;20367;-53
2021/01/12 00:51:43;;;;;;;12.77;8.30;;;;;;;;;;4398992;32;20241;-52
2021/01/12 00:54:14;;;;;;;15.87;10.00;;;;;;;;;;4401424;32;20331;-51
2021/01/12 00:56:39;;;;;;;10.53;7.47;;;;;;;;;;4393893;32;20304;-52
2021/01/12 00:59:05;;;;;;;12.97;7.57;;;;;;;;;;4397224;32;20308;-53
2021/01/12 01:01:31;;;;;;;18.97;11.33;;;;;;;;;;4398905;32;20331;-52
2021/01/12 01:03:57;;;;;;;13.23;10.57;;;;;;;;;;4388905;32;20342;-53
2021/01/12 01:06:23;;;;;;;11.93;6.43;;;;;;;;;;4382131;32;20241;-53
2021/01/12 01:08:49;;;;;;;11.57;7.70;;;;;;;;;;4402945;32;20319;-53
2021/01/12 01:11:15;;;;;;;10.23;7.43;;;;;;;;;;4401204;32;20650;-53
2021/01/12 01:13:42;;;;;;;10.17;7.23;;;;;;;;;;4401869;32;20301;-54
2021/01/12 01:16:07;;;;;;;13.13;8.20;;;;;;;;;;4398281;32;20360;-53
2021/01/12 01:18:34;;;;;;;10.63;8.33;;;;;;;;;;4384599;32;20642;-54
2021/01/12 01:20:59;;;;;;;8.50;6.90;;;;;;;;;;4401171;32;20365;-54
2021/01/12 01:23:25;;;;;;;13.93;9.67;;;;;;;;;;4402051;32;20313;-53
2021/01/12 01:25:51;;;;;;;37.50;19.27;;;;;;;;;;4383593;32;20256;-53
2021/01/12 01:28:20;;;;;;;26.80;15.77;;;;;;;;;;4400746;32;20322;-53
2021/01/12 01:30:45;;;;;;;17.40;9.80;;;;;;;;;;4401735;32;20249;-53
2021/01/12 01:33:11;;;;;;;16.30;8.30;;;;;;;;;;4402830;32;20268;-54
2021/01/12 01:35:36;;;;;;;9.73;6.80;;;;;;;;;;4397352;32;20257;-53
2021/01/12 01:38:02;;;;;;;12.20;7.83;;;;;;;;;;4388796;32;20330;-52
2021/01/12 01:40:29;;;;;;;9.30;6.20;;;;;;;;;;4387565;32;20332;-52
2021/01/12 01:42:55;;;;;;;9.90;6.47;;;;;;;;;;4397562;32;20233;-52
2021/01/12 01:45:22;;;;;;;8.17;5.73;;;;;;;;;;4392671;32;20209;-52
2021/01/12 01:47:48;;;;;;;9.87;6.13;;;;;;;;;;4383877;32;20244;-53
2021/01/12 01:50:16;;;;;;;15.97;10.33;;;;;;;;;;4398758;32;20292;-52
2021/01/12 01:52:44;;;;;;;13.33;8.07;;;;;;;;;;4402013;32;20229;-53
2021/01/12 01:55:12;;;;;;;11.90;8.10;;;;;;;;;;4399723;32;20221;-53
2021/01/12 01:57:38;;;;;;;11.47;7.33;;;;;;;;;;4388304;32;20307;-53
2021/01/12 02:00:05;;;;;;;8.03;5.80;;;;;;;;;;4387960;32;20369;-53
2021/01/12 02:02:38;;;;;;;7.17;5.20;;;;;;;;;;4401173;32;20229;-52
2021/01/12 02:05:09;;;;;;;8.97;6.27;;;;;;;;;;4399800;32;20683;-53
2021/01/12 02:07:36;;;;;;;5.60;4.93;;;;;;;;;;4402100;32;20292;-53
2021/01/12 02:10:03;;;;;;;11.30;5.60;;;;;;;;;;4401844;32;20206;-52
2021/01/12 02:12:34;;;;;;;8.33;5.87;;;;;;;;;;4387343;32;20602;-52
2021/01/12 02:15:02;;;;;;;14.43;8.40;;;;;;;;;;4401696;32;20233;-52
2021/01/12 02:17:30;;;;;;;13.67;7.83;;;;;;;;;;4395055;32;20217;-52
2021/01/12 02:19:56;;;;;;;15.47;10.67;;;;;;;;;;4401548;32;20241;-53
2021/01/12 02:22:23;;;;;;;14.10;9.23;;;;;;;;;;4400815;32;20593;-53
2021/01/12 02:24:49;;;;;;;8.50;5.97;;;;;;;;;;4401972;32;20650;-52
2021/01/12 02:27:22;;;;;;;7.77;5.87;;;;;;;;;;4381528;32;20314;-53
2021/01/12 02:29:51;;;;;;;6.40;5.53;;;;;;;;;;4387968;32;20306;-53
2021/01/12 02:32:21;;;;;;;6.57;5.03;;;;;;;;;;4387860;32;20648;-52
2021/01/12 02:34:48;;;;;;;9.70;5.47;;;;;;;;;;4401962;32;20546;-53
2021/01/12 02:37:16;;;;;;;6.57;5.17;;;;;;;;;;4401698;32;20436;-52
2021/01/12 02:39:55;;;;;;;6.67;5.37;;;;;;;;;;4391279;32;20213;-54
2021/01/12 02:42:20;;;;;;;6.60;5.53;;;;;;;;;;4393191;32;20226;-54
2021/01/12 02:44:46;;;;;;;6.90;5.30;;;;;;;;;;4387215;32;20501;-53
2021/01/12 02:47:12;;;;;;;6.03;4.80;;;;;;;;;;4377464;32;20302;-53
2021/01/12 02:49:37;;;;;;;6.33;5.40;;;;;;;;;;4389963;32;20304;-53
2021/01/12 02:52:03;;;;;;;6.87;5.27;;;;;;;;;;4394680;32;20348;-53
2021/01/12 02:54:30;;;;;;;10.23;6.03;;;;;;;;;;4389734;32;20272;-54
2021/01/12 02:56:55;;;;;;;7.43;5.30;;;;;;;;;;4397734;32;20259;-53
2021/01/12 02:59:21;;;;;;;7.37;5.67;;;;;;;;;;4399694;32;20721;-56
2021/01/12 03:01:46;;;;;;;7.63;5.53;;;;;;;;;;4390774;32;20565;-55
2021/01/12 03:04:12;;;;;;;7.47;5.40;;;;;;;;;;4387257;32;20292;-54
2021/01/12 03:06:38;;;;;;;9.47;6.23;;;;;;;;;;4387797;32;20735;-54
2021/01/12 03:09:04;;;;;;;10.53;7.57;;;;;;;;;;4385188;32;20531;-55
2021/01/12 03:11:29;;;;;;;35.97;19.57;;;;;;;;;;4397793;32;20655;-55
2021/01/12 03:13:57;;;;;;;25.83;16.03;;;;;;;;;;4398543;32;20288;-55
2021/01/12 03:16:22;;;;;;;22.50;13.93;;;;;;;;;;4397401;32;20268;-54
2021/01/12 03:18:48;;;;;;;16.20;11.27;;;;;;;;;;4397001;32;20285;-54
2021/01/12 03:21:14;;;;;;;25.60;10.90;;;;;;;;;;4388819;32;20415;-53
2021/01/12 03:23:39;;;;;;;17.90;9.33;;;;;;;;;;4403328;32;20618;-53
2021/01/12 03:26:05;;;;;;;15.60;9.63;;;;;;;;;;4392891;32;20221;-53
2021/01/12 03:28:30;;;;;;;24.23;10.03;;;;;;;;;;4403776;32;20720;-53
2021/01/12 03:30:56;;;;;;;8.03;7.03;;;;;;;;;;4389540;32;20229;-53
2021/01/12 03:33:22;;;;;;;9.77;5.40;;;;;;;;;;4377604;32;20322;-54
2021/01/12 03:35:48;;;;;;;11.37;7.27;;;;;;;;;;4394664;32;20217;-53
2021/01/12 03:38:14;;;;;;;13.83;8.93;;;;;;;;;;4403628;32;20288;-53
2021/01/12 03:40:39;;;;;;;15.30;10.37;;;;;;;;;;4401306;32;20707;-54
2021/01/12 03:43:05;;;;;;;14.53;10.40;;;;;;;;;;4403668;32;20347;-53
2021/01/12 03:45:31;;;;;;;12.50;8.47;;;;;;;;;;4376775;32;20251;-53
2021/01/12 03:47:57;;;;;;;15.37;9.53;;;;;;;;;;4375673;32;20717;-54
2021/01/12 03:50:25;;;;;;;16.23;8.87;;;;;;;;;;4396910;32;20247;-53
2021/01/12 03:52:54;;;;;;;14.13;9.57;;;;;;;;;;4396616;32;20257;-54
2021/01/12 03:55:20;;;;;;;18.17;9.10;;;;;;;;;;4394310;32;20238;-54
2021/01/12 03:57:45;;;;;;;11.50;7.57;;;;;;;;;;4403492;32;20334;-53
2021/01/12 04:00:12;;;;;;;22.67;13.30;;;;;;;;;;4386402;32;20369;-54
2021/01/12 04:02:37;;;;;;;26.10;13.93;;;;;;;;;;4403317;32;20665;-54
2021/01/12 04:05:03;;;;;;;14.47;9.83;;;;;;;;;;4395197;32;20307;-54
2021/01/12 04:07:29;;;;;;;15.07;11.87;;;;;;;;;;4402957;32;20217;-54
2021/01/12 04:09:54;;;;;;;17.23;11.97;;;;;;;;;;4389858;32;20700;-53
2021/01/12 04:12:20;;;;;;;13.50;9.40;;;;;;;;;;4387449;32;20256;-54
2021/01/12 04:14:45;;;;;;;13.50;9.13;;;;;;;;;;4389565;32;20292;-54
2021/01/12 04:17:11;;;;;;;23.17;12.57;;;;;;;;;;4389572;32;20241;-54
2021/01/12 04:19:36;;;;;;;26.00;14.33;;;;;;;;;;4395974;32;20677;-55
2021/01/12 04:22:02;;;;;;;17.23;11.90;;;;;;;;;;4402044;27;20332;-54
2021/01/12 04:24:27;;;;;;;15.57;9.47;;;;;;;;;;4397257;32;20622;-56
2021/01/12 04:26:53;;;;;;;7.93;7.10;;;;;;;;;;4384748;32;20672;-54
2021/01/12 04:29:18;;;;;;;7.87;6.33;;;;;;;;;;4388958;32;20233;-53
2021/01/12 04:31:44;;;;;;;11.43;8.40;;;;;;;;;;4399882;32;20225;-55
2021/01/12 04:34:09;;;;;;;14.90;8.17;;;;;;;;;;4392104;32;20415;-54
2021/01/12 04:36:35;;;;;;;12.80;10.37;;;;;;;;;;4369786;32;20345;-54
2021/01/12 04:39:00;;;;;;;13.10;10.50;;;;;;;;;;4386379;32;20694;-54
2021/01/12 04:41:26;;;;;;;11.40;9.00;;;;;;;;;;4395971;32;20385;-54
2021/01/12 04:43:52;;;;;;;14.27;8.43;;;;;;;;;;4387395;32;20284;-54
2021/01/12 04:46:17;;;;;;;11.30;7.50;;;;;;;;;;4392992;32;20248;-54
2021/01/12 04:48:43;;;;;;;9.70;6.60;;;;;;;;;;4397008;32;20649;-57
2021/01/12 04:51:10;;;;;;;7.00;6.30;;;;;;;;;;4382742;32;20291;-54
2021/01/12 04:53:37;;;;;;;15.60;9.50;;;;;;;;;;4399677;32;20202;-54
2021/01/12 04:56:03;;;;;;;10.57;7.77;;;;;;;;;;4376370;32;20271;-54
2021/01/12 04:58:44;;;;;;;15.70;10.87;;;;;;;;;;4370479;32;20670;-54
2021/01/12 05:01:14;;;;;;;23.17;13.10;;;;;;;;;;4387404;32;20751;-53
2021/01/12 05:03:47;;;;;;;34.57;14.00;;;;;;;;;;4399521;32;20214;-54
2021/01/12 05:06:13;;;;;;;17.83;10.23;;;;;;;;;;4379429;32;20285;-54
2021/01/12 05:08:54;;;;;;;6.63;4.93;;;;;;;;;;4379434;32;20337;-54
2021/01/12 05:11:23;;;;;;;10.57;5.00;;;;;;;;;;4399110;32;20225;-55
2021/01/12 05:13:54;;;;;;;7.53;3.77;;;;;;;;;;4385826;32;20587;-55
2021/01/12 05:16:22;;;;;;;8.13;4.03;;;;;;;;;;4369992;32;20521;-54
2021/01/12 05:18:51;;;;;;;7.43;5.10;;;;;;;;;;4385165;32;20623;-54
2021/01/12 05:21:18;;;;;;;5.13;4.63;;;;;;;;;;4401116;32;20563;-53
2021/01/12 05:23:51;;;;;;;16.07;9.57;;;;;;;;;;4385664;32;20213;-52
2021/01/12 05:26:18;;;;;;;8.93;4.93;;;;;;;;;;4386804;32;20230;-52
2021/01/12 05:28:45;;;;;;;5.10;4.23;;;;;;;;;;4382950;32;20259;-53
2021/01/12 05:31:14;;;;;;;7.27;4.87;;;;;;;;;;4396262;32;20287;-52
2021/01/12 05:33:42;;;;;;;7.57;5.03;;;;;;;;;;4399108;32;20209;-54
2021/01/12 05:36:08;;;;;;;6.97;5.00;;;;;;;;;;4391025;32;20670;-56
2021/01/12 05:38:34;;;;;;;9.73;5.43;;;;;;;;;;4398274;32;20308;-54
2021/01/12 05:41:01;;;;;;;7.73;5.80;;;;;;;;;;4384423;32;20648;-53
2021/01/12 05:43:36;;;;;;;6.50;5.03;;;;;;;;;;4388578;32;20218;-53
2021/01/12 05:46:10;;;;;;;5.40;4.20;;;;;;;;;;4392603;32;20307;-53
2021/01/12 05:48:46;;;;;;;6.50;4.10;;;;;;;;;;4386215;32;20240;-53
2021/01/12 05:51:13;;;;;;;7.43;5.53;;;;;;;;;;4390271;32;20213;-54
2021/01/12 05:53:45;;;;;;;9.27;6.30;;;;;;;;;;4372016;32;20626;-52
2021/01/12 05:56:15;;;;;;;9.30;6.50;;;;;;;;;;4388942;32;20700;-55
2021/01/12 05:58:48;;;;;;;11.00;7.70;;;;;;;;;;4388383;32;20723;-53
2021/01/12 06:01:29;;;;;;;14.83;9.77;;;;;;;;;;4397064;32;20224;-53
2021/01/12 06:03:55;;;;;;;12.73;8.87;;;;;;;;;;4377220;32;20387;-53
2021/01/12 06:06:21;;;;;;;9.40;8.17;;;;;;;;;;4397873;32;20269;-53
2021/01/12 06:08:50;;;;;;;8.90;6.67;;;;;;;;;;4380787;32;20273;-53
2021/01/12 06:11:18;;;;;;;13.90;7.80;;;;;;;;;;4389070;32;20630;-53
2021/01/12 06:13:54;;;;;;;13.77;9.20;;;;;;;;;;4378008;32;20233;-53
2021/01/12 06:16:23;;;;;;;10.97;7.30;;;;;;;;;;4368049;32;20338;-54
2021/01/12 06:19:13;;;;;;;11.33;7.73;;;;;;;;;;4378076;32;20237;-52
2021/01/12 06:22:14;;;;;;;21.90;12.13;;;;;;;;;;4394043;32;20252;-53
2021/01/12 06:24:40;;;;;;;24.20;17.07;;;;;;;;;;4368818;32;20229;-53
2021/01/12 06:27:32;;;;;;;41.63;26.10;;;;;;;;;;4386670;32;20233;-53
2021/01/12 06:30:05;;;;;;;24.67;17.20;;;;;;;;;;4365752;32;20294;-54
2021/01/12 06:32:31;;;;;;;28.77;16.83;;;;;;;;;;4395019;32;20259;-53
2021/01/12 06:35:05;;;;;;;24.17;16.40;;;;;;;;;;4389181;32;20229;-54
2021/01/12 06:37:38;;;;;;;28.27;16.77;;;;;;;;;;4387329;32;20595;-52
2021/01/12 06:40:07;;;;;;;29.83;16.27;;;;;;;;;;4395108;32;20217;-53
2021/01/12 06:42:33;;;;;;;20.60;13.43;;;;;;;;;;4393466;32;20225;-53
2021/01/12 06:44:59;;;;;;;19.43;12.63;;;;;;;;;;4387809;32;20356;-52
2021/01/12 06:47:27;;;;;;;28.80;17.10;;;;;;;;;;4392564;32;20375;-53
2021/01/12 06:50:10;;;;;;;28.03;16.90;;;;;;;;;;4396919;32;20344;-54
2021/01/12 06:52:45;;;;;;;27.27;16.53;;;;;;;;;;4392650;32;20379;-53
2021/01/12 06:55:13;;;;;;;21.30;15.27;;;;;;;;;;4391193;32;20611;-54
2021/01/12 06:57:42;;;;;;;28.73;17.10;;;;;;;;;;4381596;32;20254;-53
2021/01/12 07:00:08;;;;;;;36.97;17.80;;;;;;;;;;4366837;32;20249;-53
2021/01/12 07:02:34;;;;;;;25.90;17.90;;;;;;;;;;4392502;32;20342;-52
2021/01/12 07:05:07;;;;;;;31.37;19.93;;;;;;;;;;4382346;32;20399;-52
2021/01/12 07:07:35;;;;;;;26.23;19.10;;;;;;;;;;4376902;32;20277;-56
2021/01/12 07:10:05;;;;;;;35.60;24.70;;;;;;;;;;4394689;32;20202;-54
2021/01/12 07:12:31;;;;;;;42.10;28.27;;;;;;;;;;4394654;32;20209;-52
2021/01/12 07:15:01;;;;;;;50.40;32.13;;;;;;;;;;4386840;32;20571;-52
2021/01/12 07:17:32;;;;;;;56.03;36.00;;;;;;;;;;4398715;32;20305;-53
2021/01/12 07:20:12;;;;;;;53.87;33.77;;;;;;;;;;4388227;32;20234;-53
2021/01/12 07:22:40;;;;;;;45.80;28.47;;;;;;;;;;4384202;32;20272;-52
2021/01/12 07:25:10;;;;;;;47.27;27.00;;;;;;;;;;4393229;32;20353;-53
2021/01/12 07:27:36;;;;;;;39.87;27.00;;;;;;;;;;4374692;32;20411;-53
2021/01/12 07:30:07;;;;;;;39.87;27.40;;;;;;;;;;4368645;32;20345;-53
2021/01/12 07:32:33;;;;;;;65.70;41.43;;;;;;;;;;4388432;32;20232;-52
2021/01/12 07:35:04;;;;;;;61.07;43.40;;;;;;;;;;4388578;32;20808;-52
2021/01/12 07:37:36;;;;;;;50.37;34.10;;;;;;;;;;4388709;32;20374;-52
2021/01/12 07:40:02;;;;;;;81.13;48.70;;;;;;;;;;4384007;32;20311;-52
2021/01/12 07:42:28;;;;;;;79.03;50.13;;;;;;;;;;4385182;32;20237;-53
2021/01/12 07:44:53;;;;;;;62.03;39.63;;;;;;;;;;4387665;32;20374;-53
2021/01/12 07:47:19;;;;;;;54.97;34.57;;;;;;;;;;4387869;32;20304;-52
2021/01/12 07:49:48;;;;;;;39.30;28.13;;;;;;;;;;4367425;32;20324;-52
2021/01/12 07:52:14;;;;;;;35.00;22.03;;;;;;;;;;4375277;32;20237;-52
2021/01/12 07:54:41;;;;;;;33.67;23.27;;;;;;;;;;4390111;32;20205;-53
2021/01/12 07:57:09;;;;;;;24.77;16.50;;;;;;;;;;4380879;32;20230;-51
2021/01/12 07:59:35;;;;;;;21.93;15.83;;;;;;;;;;4376617;32;20675;-53
2021/01/12 08:02:02;;;;;;;17.60;11.30;;;;;;;;;;4402048;32;20254;-53
2021/01/12 08:04:30;;;;;;;24.30;11.00;;;;;;;;;;4384096;32;20378;-54
2021/01/12 08:06:56;;;;;;;16.90;12.17;;;;;;;;;;4390985;32;20259;-52
2021/01/12 08:09:22;;;;;;;9.23;7.03;;;;;;;;;;4392902;32;20742;-53
2021/01/12 08:11:50;;;;;;;15.27;9.47;;;;;;;;;;4394498;32;20604;-52
2021/01/12 08:14:21;;;;;;;12.70;7.30;;;;;;;;;;4387704;32;20324;-52
2021/01/12 08:16:48;;;;;;;60.77;34.10;;;;;;;;;;4390700;32;20248;-52
2021/01/12 08:19:20;;;;;;;109.07;62.77;;;;;;;;;;4377203;32;20723;-52
2021/01/12 08:21:45;;;;;;;90.33;50.43;;;;;;;;;;4388245;32;20359;-53
2021/01/12 08:24:11;;;;;;;41.03;24.23;;;;;;;;;;4382936;32;20309;-52
2021/01/12 08:26:43;;;;;;;27.90;16.63;;;;;;;;;;4385280;32;20265;-52
2021/01/12 08:29:09;;;;;;;20.27;14.10;;;;;;;;;;4388204;32;20226;-53
2021/01/12 08:31:40;;;;;;;24.63;13.83;;;;;;;;;;4389596;32;20349;-53
2021/01/12 08:34:07;;;;;;;31.23;16.07;;;;;;;;;;4399898;32;20245;-53
2021/01/12 08:36:33;;;;;;;13.80;9.20;;;;;;;;;;4399850;32;20404;-52
2021/01/12 08:39:00;;;;;;;23.07;12.63;;;;;;;;;;4391389;32;20685;-52
2021/01/12 08:41:26;;;;;;;30.87;14.27;;;;;;;;;;4386688;32;20346;-52
2021/01/12 08:43:57;;;;;;;32.00;16.43;;;;;;;;;;4397716;32;20345;-52
2021/01/12 08:46:28;;;;;;;8.83;6.20;;;;;;;;;;4396484;32;20225;-53
2021/01/12 08:48:54;;;;;;;41.40;22.43;;;;;;;;;;4371168;32;20656;-53
2021/01/12 08:51:19;;;;;;;29.77;14.60;;;;;;;;;;4382217;32;20249;-53
2021/01/12 08:53:55;;;;;;;62.87;31.43;;;;;;;;;;4393585;32;20748;-52
2021/01/12 08:56:22;;;;;;;14.43;8.67;;;;;;;;;;4396019;32;20236;-52
2021/01/12 08:58:47;;;;;;;17.03;9.50;;;;;;;;;;4398382;32;20277;-52
2021/01/12 09:01:14;;;;;;;23.40;11.60;;;;;;;;;;4378259;32;20259;-52
2021/01/12 09:03:42;;;;;;;27.87;16.40;;;;;;;;;;4397400;32;20303;-52
2021/01/12 09:06:18;;;;;;;38.10;23.60;;;;;;;;;;4398692;32;20260;-52
2021/01/12 09:08:43;;;;;;;18.10;13.37;;;;;;;;;;4387779;32;20274;-53
2021/01/12 09:11:10;;;;;;;21.43;14.57;;;;;;;;;;4387265;32;20617;-53
2021/01/12 09:13:36;;;;;;;12.60;6.17;;;;;;;;;;4357677;32;20379;-53
2021/01/12 09:16:01;;;;;;;36.00;14.80;;;;;;;;;;4364930;32;20238;-53
2021/01/12 09:18:27;;;;;;;14.77;9.17;;;;;;;;;;4376576;32;20714;-54
2021/01/12 09:20:57;;;;;;;12.40;7.20;;;;;;;;;;4380867;32;20251;-53
2021/01/12 09:23:24;;;;;;;12.13;7.00;;;;;;;;;;4363997;32;20230;-53
2021/01/12 09:26:03;;;;;;;30.33;19.00;;;;;;;;;;4388068;32;20276;-52
2021/01/12 09:28:35;;;;;;;21.90;15.13;;;;;;;;;;4386126;32;20240;-53
2021/01/12 09:31:09;;;;;;;16.50;10.43;;;;;;;;;;4383114;32;20241;-53
2021/01/12 09:33:36;;;;;;;9.60;6.97;;;;;;;;;;4372702;32;20578;-53
2021/01/12 09:36:10;;;;;;;12.20;8.00;;;;;;;;;;4372213;32;20280;-53
2021/01/12 09:38:38;;;;;;;9.17;7.03;;;;;;;;;;4359469;32;20635;-53
2021/01/12 09:41:04;;;;;;;15.70;10.37;;;;;;;;;;4368371;32;20302;-53
2021/01/12 09:43:31;;;;;;;22.13;15.90;;;;;;;;;;4386708;32;20273;-53
2021/01/12 09:45:57;;;;;;;21.13;15.37;;;;;;;;;;4378856;32;20626;-52
2021/01/12 09:48:23;;;;;;;23.23;14.83;;;;;;;;;;4386065;32;20214;-52
2021/01/12 09:50:49;;;;;;;21.03;14.37;;;;;;;;;;4396391;32;20229;-52
2021/01/12 09:53:15;;;;;;;99.20;60.63;;;;;;;;;;4395527;32;20693;-53
2021/01/12 09:55:41;;;;;;;26.50;15.03;;;;;;;;;;4391837;32;20288;-54
2021/01/12 09:58:06;;;;;;;27.40;16.87;;;;;;;;;;4390413;32;20355;-54
2021/01/12 10:00:32;;;;;;;26.80;19.67;;;;;;;;;;4380333;32;20807;-53
2021/01/12 10:02:57;;;;;;;10.23;8.50;;;;;;;;;;4370814;32;20814;-52
2021/01/12 10:05:23;;;;;;;11.97;7.10;;;;;;;;;;4394443;32;20240;-53
2021/01/12 10:07:48;;;;;;;7.23;5.43;;;;;;;;;;4401742;32;20326;-53
2021/01/12 10:10:13;;;;;;;15.07;9.80;;;;;;;;;;4384971;32;20316;-53
2021/01/12 10:12:39;;;;;;;15.07;9.43;;;;;;;;;;4385607;32;20382;-52
2021/01/12 10:15:05;;;;;;;6.70;4.63;;;;;;;;;;4379856;32;20327;-53
2021/01/12 10:17:31;;;;;;;4.80;3.97;;;;;;;;;;4386790;32;20630;-55
2021/01/12 10:19:56;;;;;;;6.90;5.10;;;;;;;;;;4394460;32;20276;-53
2021/01/12 10:22:22;;;;;;;17.40;12.03;;;;;;;;;;4387436;32;20238;-53
2021/01/12 10:24:47;;;;;;;9.80;6.23;;;;;;;;;;4383043;32;20273;-55
2021/01/12 10:27:13;;;;;;;12.67;7.50;;;;;;;;;;4368252;32;20332;-55
2021/01/12 10:29:39;;;;;;;21.53;13.77;;;;;;;;;;4376887;32;20269;-54
2021/01/12 10:32:05;;;;;;;20.20;11.40;;;;;;;;;;4388297;32;20225;-54
2021/01/12 10:34:30;;;;;;;15.40;9.87;;;;;;;;;;4402575;32;20281;-55
2021/01/12 10:36:55;;;;;;;17.07;9.63;;;;;;;;;;4401693;32;20332;-54
2021/01/12 10:39:21;;;;;;;16.10;10.37;;;;;;;;;;4385148;32;20264;-55
2021/01/12 10:41:47;;;;;;;4.37;3.43;;;;;;;;;;4387057;32;20294;-53
2021/01/12 10:44:12;;;;;;;11.13;7.67;;;;;;;;;;4396521;32;20300;-55
2021/01/12 10:46:39;;;;;;;11.73;7.97;;;;;;;;;;4383309;32;20250;-54
2021/01/12 10:49:04;;;;;;;7.13;4.40;;;;;;;;;;4393285;32;20489;-55
2021/01/12 10:51:30;;;;;;;5.03;3.73;;;;;;;;;;4391567;32;20234;-54
2021/01/12 10:53:56;;;;;;;5.33;4.17;;;;;;;;;;4390268;32;20315;-54
2021/01/12 10:56:21;;;;;;;8.03;5.53;;;;;;;;;;4369856;32;20608;-53
2021/01/12 10:58:47;;;;;;;8.03;6.20;;;;;;;;;;4373435;32;20292;-55
2021/01/12 11:01:16;;;;;;;7.30;5.97;;;;;;;;;;4371499;32;20240;-53
2021/01/12 11:03:44;;;;;;;19.87;8.83;;;;;;;;;;4375565;32;20209;-53
2021/01/12 11:06:10;;;;;;;14.97;9.60;;;;;;;;;;4397883;32;20371;-53
2021/01/12 11:08:35;;;;;;;10.20;6.63;;;;;;;;;;4381213;32;20861;-53
2021/01/12 11:11:01;;;;;;;6.07;4.37;;;;;;;;;;4377100;32;20245;-54
2021/01/12 11:13:27;;;;;;;5.07;3.70;;;;;;;;;;4389486;32;20343;-54
2021/01/12 11:15:56;;;;;;;16.50;10.07;;;;;;;;;;4365065;32;20288;-53
2021/01/12 11:18:22;;;;;;;11.77;7.67;;;;;;;;;;4373139;32;20256;-53
2021/01/12 11:20:48;;;;;;;9.70;8.00;;;;;;;;;;4372445;32;20626;-53
2021/01/12 11:23:13;;;;;;;14.00;8.40;;;;;;;;;;4381547;32;20226;-53
2021/01/12 11:25:40;;;;;;;10.73;5.13;;;;;;;;;;4377694;32;20400;-55
2021/01/12 11:28:05;;;;;;;10.00;5.43;;;;;;;;;;4389587;32;20428;-54
2021/01/12 11:30:31;;;;;;;17.50;11.40;;;;;;;;;;4380967;32;20308;-53
2021/01/12 11:32:59;;;;;;;10.17;7.30;;;;;;;;;;4387893;32;20340;-53
2021/01/12 11:35:25;;;;;;;21.00;11.87;;;;;;;;;;4384163;32;20286;-53
2021/01/12 11:37:50;;;;;;;18.37;11.07;;;;;;;;;;4362725;32;20687;-53
2021/01/12 11:40:16;;;;;;;19.23;10.40;;;;;;;;;;4388215;32;20533;-54
2021/01/12 11:42:42;;;;;;;18.67;10.67;;;;;;;;;;4377943;32;20319;-52
2021/01/12 11:45:08;;;;;;;10.60;4.83;;;;;;;;;;4385685;32;20630;-54
2021/01/12 11:47:34;;;;;;;15.80;6.47;;;;;;;;;;4384432;32;20233;-54
2021/01/12 11:50:00;;;;;;;6.17;3.80;;;;;;;;;;4384166;32;20308;-53
2021/01/12 11:52:25;;;;;;;12.90;7.53;;;;;;;;;;4370314;32;20281;-54
2021/01/12 11:54:51;;;;;;;11.13;5.97;;;;;;;;;;4372728;32;20194;-53
2021/01/12 11:57:16;;;;;;;10.17;4.20;;;;;;;;;;4382178;32;20285;-54
2021/01/12 11:59:42;;;;;;;4.87;3.00;;;;;;;;;;4393476;32;20699;-54
2021/01/12 12:02:07;;;;;;;8.83;3.77;;;;;;;;;;4375973;32;20630;-54
2021/01/12 12:04:33;;;;;;;17.43;5.80;;;;;;;;;;4390108;32;20259;-54
2021/01/12 12:07:02;;;;;;;12.63;6.27;;;;;;;;;;4391608;32;20249;-54
2021/01/12 12:09:29;;;;;;;5.40;3.87;;;;;;;;;;4386250;32;20211;-54
2021/01/12 12:11:55;;;;;;;6.07;4.60;;;;;;;;;;4384180;32;20679;-54
2021/01/12 12:14:21;;;;;;;11.87;7.47;;;;;;;;;;4381430;32;20336;-55
2021/01/12 12:16:47;;;;;;;7.90;4.10;;;;;;;;;;4379973;32;20247;-56
2021/01/12 12:19:18;;;;;;;8.73;5.70;;;;;;;;;;4370458;32;20324;-54
2021/01/12 12:22:05;;;;;;;24.03;16.13;;;;;;;;;;4385179;32;20234;-55
2021/01/12 12:24:30;;;;;;;16.50;7.93;;;;;;;;;;4379420;32;20218;-54
2021/01/12 12:27:00;;;;;;;40.57;20.07;;;;;;;;;;4387361;32;20434;-56
2021/01/12 12:29:26;;;;;;;22.10;11.67;;;;;;;;;;4383732;32;20336;-55
2021/01/12 12:31:56;;;;;;;36.20;19.53;;;;;;;;;;4391684;32;20236;-55
2021/01/12 12:34:25;;;;;;;38.03;18.37;;;;;;;;;;4386515;32;20313;-55
2021/01/12 12:36:50;;;;;;;63.03;32.00;;;;;;;;;;4398299;32;20341;-55
2021/01/12 12:39:16;;;;;;;26.73;16.57;;;;;;;;;;4394731;32;20725;-56
2021/01/12 12:41:42;;;;;;;19.53;13.30;;;;;;;;;;4378925;32;20240;-56
2021/01/12 12:44:08;;;;;;;19.83;12.07;;;;;;;;;;4380898;32;20364;-55
2021/01/12 12:46:33;;;;;;;9.53;6.93;;;;;;;;;;4364095;32;20260;-56
2021/01/12 12:48:59;;;;;;;23.57;14.53;;;;;;;;;;4374977;32;20357;-55
2021/01/12 12:51:26;;;;;;;35.27;20.60;;;;;;;;;;4384949;32;20798;-55
2021/01/12 12:53:55;;;;;;;60.50;31.57;;;;;;;;;;4374668;32;20288;-55
2021/01/12 12:56:21;;;;;;;14.87;10.67;;;;;;;;;;4366713;32;20717;-55
2021/01/12 12:58:47;;;;;;;11.07;8.60;;;;;;;;;;4392997;32;20398;-55
2021/01/12 13:01:13;;;;;;;15.47;9.37;;;;;;;;;;4382127;32;20623;-55
2021/01/12 13:03:39;;;;;;;15.10;9.13;;;;;;;;;;4384658;32;20315;-57
2021/01/12 13:06:06;;;;;;;21.63;9.63;;;;;;;;;;4395320;32;20354;-56
2021/01/12 13:08:33;;;;;;;9.87;6.17;;;;;;;;;;4377646;32;20237;-55
2021/01/12 13:11:00;;;;;;;18.90;11.30;;;;;;;;;;4380256;32;20400;-55
2021/01/12 13:13:26;;;;;;;16.53;10.97;;;;;;;;;;4381630;32;20309;-55
2021/01/12 13:15:52;;;;;;;10.33;8.40;;;;;;;;;;4382266;32;20433;-55
2021/01/12 13:18:24;;;;;;;28.13;15.93;;;;;;;;;;4381869;32;20348;-56
2021/01/12 13:20:51;;;;;;;32.80;18.93;;;;;;;;;;4385115;32;20635;-56
2021/01/12 13:23:18;;;;;;;25.27;15.80;;;;;;;;;;4386423;32;20303;-55
2021/01/12 13:25:45;;;;;;;30.30;18.30;;;;;;;;;;4391821;32;20416;-56
2021/01/12 13:28:11;;;;;;;32.70;18.40;;;;;;;;;;4375340;32;20254;-56
2021/01/12 13:30:42;;;;;;;42.90;24.87;;;;;;;;;;4381652;32;20261;-56
2021/01/12 13:33:07;;;;;;;28.87;16.77;;;;;;;;;;4372035;32;20365;-55
2021/01/12 13:35:33;;;;;;;29.60;16.47;;;;;;;;;;4389912;32;20300;-55
2021/01/12 13:37:59;;;;;;;9.97;7.70;;;;;;;;;;4394959;32;20279;-55
2021/01/12 13:40:24;;;;;;;21.57;12.47;;;;;;;;;;4379071;32;20341;-55
2021/01/12 13:42:51;;;;;;;18.97;13.17;;;;;;;;;;4364042;32;20394;-55
2021/01/12 13:45:17;;;;;;;17.97;13.23;;;;;;;;;;4387938;32;20279;-55
2021/01/12 13:47:46;;;;;;;16.90;10.70;;;;;;;;;;4376070;32;20312;-56
2021/01/12 13:50:12;;;;;;;22.80;13.27;;;;;;;;;;4388607;32;20583;-55
2021/01/12 13:52:39;;;;;;;17.13;11.97;;;;;;;;;;4385840;32;20211;-55
2021/01/12 13:55:05;;;;;;;18.57;12.83;;;;;;;;;;4384308;32;20285;-55
2021/01/12 13:57:33;;;;;;;12.03;9.37;;;;;;;;;;4383808;32;20280;-56
2021/01/12 14:00:02;;;;;;;20.93;12.33;;;;;;;;;;4397784;32;20249;-56
2021/01/12 14:02:29;;;;;;;14.63;8.53;;;;;;;;;;4388264;32;20199;-55
2021/01/12 14:04:56;;;;;;;17.80;12.20;;;;;;;;;;4375249;32;20839;-56
2021/01/12 14:07:23;;;;;;;21.30;12.90;;;;;;;;;;4398507;32;20279;-55
2021/01/12 14:09:50;;;;;;;16.47;10.93;;;;;;;;;;4381961;32;20206;-56
2021/01/12 14:12:19;;;;;;;14.63;11.37;;;;;;;;;;4363449;32;20347;-56
2021/01/12 14:14:46;;;;;;;24.57;21.97;;;;;;;;;;4364671;32;20298;-55
2021/01/12 14:17:14;;;;;;;18.77;14.57;;;;;;;;;;4375885;32;20280;-55
2021/01/12 14:19:41;;;;;;;15.10;10.80;;;;;;;;;;4376627;32;20257;-55
2021/01/12 14:22:12;;;;;;;20.47;12.53;;;;;;;;;;4375700;32;20281;-56
2021/01/12 14:24:38;;;;;;;16.60;10.40;;;;;;;;;;4379112;32;20661;-55
2021/01/12 14:27:15;;;;;;;24.93;12.77;;;;;;;;;;4378889;32;20242;-55
2021/01/12 14:29:41;;;;;;;19.73;11.37;;;;;;;;;;4360112;32;20324;-56